createdAt,value
2019-06-20T00:02:07.823Z,99.90
2019-06-20T00:06:11.315Z,99.90
2019-06-20T00:10:15.163Z,99.90
2019-06-20T00:14:18.637Z,99.90
2019-06-20T00:18:22.119Z,99.90
2019-06-20T00:22:25.592Z,99.90
2019-06-20T00:26:29.352Z,99.90
2019-06-20T00:30:33.099Z,99.90
2019-06-20T00:34:36.567Z,99.90
2019-06-20T00:38:40.409Z,99.90
2019-06-20T00:42:44.125Z,99.90
2019-06-20T00:46:47.594Z,99.90
2019-06-20T00:50:51.052Z,99.90
2019-06-20T00:54:54.504Z,99.90
2019-06-20T00:58:57.956Z,99.90
2019-06-20T01:03:01.821Z,99.90
2019-06-20T01:07:05.420Z,99.90
2019-06-20T01:11:08.888Z,99.90
2019-06-20T01:15:13.583Z,99.90
2019-06-20T01:19:17.116Z,99.90
2019-06-20T01:23:20.578Z,99.90
2019-06-20T01:27:24.048Z,99.90
2019-06-20T01:31:27.881Z,99.90
2019-06-20T01:35:31.588Z,99.90
2019-06-20T01:39:35.057Z,99.90
2019-06-20T01:43:49.948Z,99.90
2019-06-20T01:47:44.228Z,99.90
2019-06-20T01:51:47.707Z,99.90
2019-06-20T01:55:51.487Z,99.90
2019-06-20T01:59:54.952Z,99.90
2019-06-20T02:03:58.484Z,99.90
2019-06-20T02:08:01.963Z,99.90
2019-06-20T02:12:05.444Z,99.90
2019-06-20T02:16:08.912Z,99.90
2019-06-20T02:20:33.576Z,99.90
2019-06-20T02:24:37.116Z,99.90
2019-06-20T02:28:40.587Z,99.90
2019-06-20T02:32:44.047Z,99.90
2019-06-20T02:36:48.130Z,99.90
2019-06-20T02:40:51.588Z,99.90
2019-06-20T02:44:55.074Z,99.90
2019-06-20T02:48:58.849Z,99.90
2019-06-20T02:53:03.770Z,99.90
2019-06-20T02:57:07.307Z,99.90
2019-06-20T03:01:10.815Z,99.90
2019-06-20T03:05:14.411Z,99.90
2019-06-20T03:09:18.159Z,99.90
2019-06-20T03:13:21.629Z,99.90
2019-06-20T03:17:25.445Z,99.90
2019-06-20T03:21:28.975Z,99.90
2019-06-20T03:25:32.502Z,99.90
2019-06-20T03:29:35.960Z,99.90
2019-06-20T03:33:39.500Z,99.90
2019-06-20T03:37:42.969Z,99.90
2019-06-20T03:41:46.426Z,99.90
2019-06-20T03:45:49.880Z,99.90
2019-06-20T03:49:53.340Z,99.90
2019-06-20T03:53:56.805Z,99.90
2019-06-20T03:58:01.511Z,99.90
2019-06-20T04:02:05.339Z,99.90
2019-06-20T04:06:09.065Z,99.90
2019-06-20T04:10:12.908Z,99.90
2019-06-20T04:14:16.365Z,99.90
2019-06-20T04:18:20.170Z,99.90
2019-06-20T04:22:24.008Z,99.90
2019-06-20T04:26:27.476Z,99.90
2019-06-20T04:30:31.209Z,99.90
2019-06-20T04:34:35.007Z,99.90
2019-06-20T04:38:38.490Z,99.90
2019-06-20T04:42:42.009Z,99.90
2019-06-20T04:46:53.235Z,99.90
2019-06-20T04:50:56.972Z,99.90
2019-06-20T04:55:00.477Z,99.90
2019-06-20T04:59:04.391Z,99.90
2019-06-20T05:03:07.868Z,99.90
2019-06-20T05:07:14.400Z,99.90
2019-06-20T05:11:18.189Z,99.90
2019-06-20T05:15:21.640Z,99.90
2019-06-20T05:19:25.391Z,99.90
2019-06-20T05:23:28.848Z,99.90
2019-06-20T05:27:32.387Z,99.90
2019-06-20T05:31:35.831Z,99.90
2019-06-20T05:35:39.302Z,99.90
2019-06-20T05:39:42.830Z,99.90
2019-06-20T05:43:46.563Z,99.90
2019-06-20T05:47:50.531Z,99.90
2019-06-20T05:51:54.256Z,99.90
2019-06-20T05:55:57.718Z,99.90
2019-06-20T06:00:01.184Z,99.90
2019-06-20T06:04:07.644Z,99.90
2019-06-20T06:08:11.448Z,99.90
2019-06-20T06:12:14.917Z,99.90
2019-06-20T06:16:26.989Z,99.90
2019-06-20T06:20:23.630Z,99.90
2019-06-20T06:24:27.104Z,99.90
2019-06-20T06:28:30.641Z,99.90
2019-06-20T06:32:39.996Z,99.90
2019-06-20T06:36:39.672Z,99.90
2019-06-20T06:40:43.209Z,99.90
2019-06-20T06:44:46.740Z,99.90
2019-06-20T06:48:50.195Z,99.90
2019-06-20T06:52:53.661Z,99.90
2019-06-20T06:56:57.409Z,99.90
2019-06-20T07:01:01.148Z,99.90
2019-06-20T07:05:07.240Z,99.90
2019-06-20T07:09:10.974Z,99.90
2019-06-20T07:13:14.712Z,99.90
2019-06-20T07:17:18.176Z,99.90
2019-06-20T07:21:22.111Z,99.90
2019-06-20T07:25:25.645Z,99.90
2019-06-20T07:29:29.180Z,99.90
2019-06-20T07:33:32.661Z,99.90
2019-06-20T07:37:36.480Z,99.90
2019-06-20T07:41:39.949Z,99.90
2019-06-20T07:45:43.424Z,99.90
2019-06-20T07:49:46.896Z,99.90
2019-06-20T07:53:50.394Z,99.90
2019-06-20T07:57:53.953Z,99.90
2019-06-20T08:01:57.732Z,99.90
2019-06-20T08:06:01.201Z,99.90
2019-06-20T08:10:10.709Z,99.90
2019-06-20T08:14:14.498Z,99.90
2019-06-20T08:18:17.956Z,99.90
2019-06-20T08:22:21.428Z,99.90
2019-06-20T08:26:24.900Z,99.90
2019-06-20T08:30:30.218Z,99.90
2019-06-20T08:34:33.683Z,99.90
2019-06-20T08:38:37.151Z,99.90
2019-06-20T08:42:40.897Z,99.90
2019-06-20T08:46:44.368Z,99.90
2019-06-20T08:50:48.150Z,99.90
2019-06-20T08:54:51.912Z,99.90
2019-06-20T08:58:57.011Z,99.90
2019-06-20T09:03:00.597Z,99.90
2019-06-20T09:11:07.845Z,99.90
2019-06-20T09:15:11.857Z,99.90
2019-06-20T09:19:15.325Z,99.90
2019-06-20T09:23:19.103Z,99.90
2019-06-20T09:27:22.839Z,99.90
2019-06-20T09:31:26.578Z,99.90
2019-06-20T09:35:30.291Z,99.90
2019-06-20T09:39:33.759Z,99.90
2019-06-20T09:43:37.236Z,99.90
2019-06-20T09:47:41.116Z,99.90
2019-06-20T09:51:44.591Z,99.90
2019-06-20T09:55:48.897Z,99.90
2019-06-20T10:00:03.309Z,99.90
2019-06-20T10:03:58.718Z,99.90
2019-06-20T10:08:02.575Z,99.90
2019-06-20T10:12:06.335Z,99.90
2019-06-20T10:16:10.054Z,99.90
2019-06-20T10:20:13.768Z,99.90
2019-06-20T10:24:17.228Z,99.90
2019-06-20T10:28:20.963Z,99.90
2019-06-20T10:32:24.760Z,99.90
2019-06-20T10:36:28.239Z,99.90
2019-06-20T10:40:31.992Z,99.90
2019-06-20T10:44:35.711Z,99.90
2019-06-20T10:48:39.188Z,99.90
2019-06-20T10:52:43.666Z,99.90
2019-06-20T10:56:47.315Z,99.90
2019-06-20T11:00:50.799Z,99.90
2019-06-20T11:04:54.348Z,99.90
2019-06-20T11:08:57.820Z,99.90
2019-06-20T11:13:01.655Z,99.90
2019-06-20T11:17:05.107Z,99.90
2019-06-20T11:21:08.568Z,99.90
2019-06-20T11:25:13.984Z,99.90
2019-06-20T11:29:17.781Z,99.90
2019-06-20T11:33:21.523Z,99.90
2019-06-20T11:37:25.013Z,99.90
2019-06-20T11:41:28.748Z,99.90
2019-06-20T11:45:32.217Z,99.90
2019-06-20T11:49:36.423Z,98.80
2019-06-20T11:53:40.642Z,99.40
2019-06-20T11:57:44.538Z,99.10
2019-06-20T12:01:49.083Z,99.90
2019-06-20T12:05:52.608Z,99.40
2019-06-20T12:09:56.069Z,99.80
2019-06-20T12:13:59.605Z,99.70
2019-06-20T12:18:03.087Z,99.90
2019-06-20T12:22:06.831Z,98.80
2019-06-20T12:26:10.416Z,99.50
2019-06-20T12:30:15.611Z,99.60
2019-06-20T12:34:19.334Z,99.90
2019-06-20T12:38:23.140Z,99.90
2019-06-20T12:42:26.857Z,98.90
2019-06-20T12:46:30.414Z,99.90
2019-06-20T12:50:34.228Z,99.40
2019-06-20T12:54:38.168Z,98.50
2019-06-20T12:58:42.232Z,99.90
2019-06-20T13:02:45.796Z,99.30
2019-06-20T13:06:49.827Z,98.80
2019-06-20T13:10:54.289Z,97.30
2019-06-20T13:15:01.022Z,99.00
2019-06-20T13:19:04.815Z,97.00
2019-06-20T13:23:08.343Z,98.20
2019-06-20T13:27:12.082Z,97.50
2019-06-20T13:31:15.871Z,97.60
2019-06-20T13:35:20.483Z,96.40
2019-06-20T13:39:23.940Z,97.70
2019-06-20T13:43:27.667Z,96.70
2019-06-20T13:47:31.135Z,96.60
2019-06-20T13:51:34.592Z,96.60
2019-06-20T13:55:39.410Z,97.20
2019-06-20T13:59:43.446Z,98.40
2019-06-20T14:03:48.628Z,98.40
2019-06-20T14:07:54.330Z,97.20
2019-06-20T14:11:57.505Z,94.80
2019-06-20T14:16:01.264Z,97.10
2019-06-20T14:20:08.395Z,94.90
2019-06-20T14:24:12.224Z,97.20
2019-06-20T14:28:17.242Z,95.90
2019-06-20T14:32:22.367Z,95.50
2019-06-20T14:36:26.066Z,96.00
2019-06-20T14:40:29.535Z,96.50
2019-06-20T14:44:33.316Z,95.80
2019-06-20T14:48:37.028Z,95.70
2019-06-20T14:52:40.496Z,95.30
2019-06-20T14:56:45.867Z,95.70
2019-06-20T15:00:49.865Z,94.50
2019-06-20T15:04:54.386Z,95.50
2019-06-20T15:09:04.803Z,94.20
2019-06-20T15:13:03.395Z,92.50
2019-06-20T15:17:06.863Z,94.80
2019-06-20T15:21:10.332Z,93.50
2019-06-20T15:25:14.128Z,94.80
2019-06-20T15:29:17.594Z,93.50
2019-06-20T15:33:21.071Z,93.60
2019-06-20T15:37:24.833Z,93.30
2019-06-20T15:41:28.637Z,93.70
2019-06-20T15:45:32.118Z,92.90
2019-06-20T15:49:35.893Z,94.10
2019-06-20T15:53:39.352Z,94.80
2019-06-20T15:57:42.848Z,93.60
2019-06-20T16:01:46.364Z,94.50
2019-06-20T16:05:49.831Z,95.20
2019-06-20T16:09:53.282Z,97.00
2019-06-20T16:13:56.740Z,98.90
2019-06-20T16:18:00.211Z,99.90
2019-06-20T16:22:03.796Z,99.70
2019-06-20T16:26:07.591Z,99.90
2019-06-20T16:30:11.953Z,99.90
2019-06-20T16:34:15.696Z,99.90
2019-06-20T16:38:19.219Z,99.90
2019-06-20T16:42:22.737Z,99.90
2019-06-20T16:46:26.300Z,99.90
2019-06-20T16:50:29.808Z,99.90
2019-06-20T16:54:33.518Z,99.90
2019-06-20T16:58:37.014Z,99.90
2019-06-20T17:02:40.596Z,99.90
2019-06-20T17:06:44.091Z,99.90
2019-06-20T17:10:47.829Z,99.90
2019-06-20T17:14:51.289Z,99.90
2019-06-20T17:18:54.741Z,99.90
2019-06-20T17:22:58.287Z,99.90
2019-06-20T17:27:02.006Z,99.90
2019-06-20T17:31:05.866Z,99.90
2019-06-20T17:35:09.409Z,99.90
2019-06-20T17:39:13.134Z,99.90
2019-06-20T17:43:16.604Z,99.90
2019-06-20T17:47:20.096Z,99.90
2019-06-20T17:51:23.563Z,99.90
2019-06-20T17:55:27.109Z,99.90
2019-06-20T17:59:30.577Z,99.90
2019-06-20T18:03:34.104Z,99.90
2019-06-20T18:07:37.821Z,99.90
2019-06-20T18:11:41.381Z,99.90
2019-06-20T18:15:44.873Z,99.90
2019-06-20T18:19:53.153Z,99.90
2019-06-20T18:23:56.993Z,99.90
2019-06-20T18:28:01.030Z,99.90
2019-06-20T18:32:04.848Z,99.90
2019-06-20T18:36:08.328Z,99.90
2019-06-20T18:40:12.058Z,99.90
2019-06-20T18:44:15.585Z,99.90
2019-06-20T18:48:19.058Z,99.90
2019-06-20T18:52:22.506Z,99.90
2019-06-20T18:56:26.055Z,99.90
2019-06-20T19:00:34.648Z,99.90
2019-06-20T19:04:46.192Z,99.90
2019-06-20T19:08:40.227Z,99.90
2019-06-20T19:12:43.675Z,99.90
2019-06-20T19:16:47.214Z,99.90
2019-06-20T19:20:51.255Z,99.90
2019-06-20T19:24:55.059Z,99.90
2019-06-20T19:28:58.594Z,99.90
2019-06-20T19:33:02.710Z,99.90
2019-06-20T19:37:06.241Z,99.90
2019-06-20T19:41:09.781Z,99.90
2019-06-20T19:45:15.887Z,99.90
2019-06-20T19:49:18.898Z,99.90
2019-06-20T19:53:22.380Z,99.90
2019-06-20T19:57:25.975Z,99.90
2019-06-20T20:01:29.820Z,99.90
2019-06-20T20:05:33.618Z,99.90
2019-06-20T20:09:37.353Z,99.90
2019-06-20T20:13:41.147Z,99.90
2019-06-20T20:17:44.958Z,99.90
2019-06-20T20:21:48.673Z,99.90
2019-06-20T20:25:52.401Z,99.90
2019-06-20T20:29:55.900Z,99.90
2019-06-20T20:34:45.103Z,99.90
2019-06-20T20:38:48.557Z,99.90
2019-06-20T20:42:52.059Z,99.90
2019-06-20T20:46:55.884Z,99.90
2019-06-20T20:56:03.274Z,99.90
2019-06-20T21:00:13.348Z,99.90
2019-06-20T21:04:17.137Z,99.90
2019-06-20T21:08:20.895Z,99.90
2019-06-20T21:12:24.410Z,99.90
2019-06-20T21:16:34.093Z,99.90
2019-06-20T21:20:36.920Z,99.90
2019-06-20T21:24:40.383Z,99.90
2019-06-20T21:28:44.216Z,99.90
2019-06-20T21:32:47.666Z,99.90
2019-06-20T21:37:06.243Z,99.90
2019-06-20T21:41:10.045Z,99.90
2019-06-20T21:45:16.348Z,99.90
2019-06-20T21:49:22.258Z,99.90
2019-06-20T21:53:25.703Z,99.90
2019-06-20T21:57:29.516Z,99.90
2019-06-20T22:01:33.111Z,99.90
2019-06-20T22:05:36.916Z,99.90
2019-06-20T22:09:40.380Z,99.90
2019-06-20T22:13:45.871Z,99.90
2019-06-20T22:17:49.308Z,99.90
2019-06-20T22:21:53.032Z,99.90
2019-06-20T22:25:56.474Z,99.90
2019-06-20T22:30:03.504Z,99.90
2019-06-20T22:34:05.439Z,99.90
2019-06-20T22:38:09.267Z,99.90
2019-06-20T22:42:12.723Z,99.90
2019-06-20T22:46:16.196Z,99.90
2019-06-20T22:50:20.011Z,99.90
2019-06-20T22:54:23.479Z,99.90
2019-06-20T22:58:26.951Z,99.90
2019-06-20T23:02:30.428Z,99.90
2019-06-20T23:06:34.240Z,99.90
2019-06-20T23:10:37.936Z,99.90
2019-06-20T23:14:41.673Z,99.90
2019-06-20T23:18:45.137Z,99.90
2019-06-20T23:22:49.056Z,99.90
2019-06-20T23:26:52.592Z,99.90
2019-06-20T23:30:56.051Z,99.90
2019-06-20T23:34:59.800Z,99.90
2019-06-20T23:39:03.264Z,99.90
2019-06-20T23:43:06.803Z,99.90
2019-06-20T23:47:10.568Z,99.90
2019-06-20T23:51:24.930Z,99.90
2019-06-20T23:55:19.236Z,99.90
2019-06-20T23:59:22.703Z,99.90
